createdAt,value
2024-03-11T00:00:16.796Z,99094.13
2024-03-11T00:00:39.862Z,99091.56
2024-03-11T00:01:03.106Z,99089.84
2024-03-11T00:01:25.890Z,99097.00
2024-03-11T00:01:47.514Z,99098.69
2024-03-11T00:02:09.195Z,99092.63
2024-03-11T00:02:32.240Z,99099.88
2024-03-11T00:02:54.051Z,99097.66
2024-03-11T00:03:16.417Z,99097.03
2024-03-11T00:03:39.309Z,99095.22
2024-03-11T00:04:01.457Z,99097.78
2024-03-11T00:04:25.083Z,99088.69
2024-03-11T00:04:47.265Z,99101.75
2024-03-11T00:05:09.929Z,99097.97
2024-03-11T00:05:31.714Z,99097.03
2024-03-11T00:05:54.520Z,99085.72
2024-03-11T00:06:16.182Z,99103.94
2024-03-11T00:06:40.353Z,99095.22
2024-03-11T00:07:04.849Z,99095.94
2024-03-11T00:07:31.443Z,99097.66
2024-03-11T00:07:56.765Z,99092.66
2024-03-11T00:08:20.808Z,99099.47
2024-03-11T00:08:42.688Z,99078.16
2024-03-11T00:09:05.986Z,99099.78
2024-03-11T00:09:29.856Z,99092.78
2024-03-11T00:09:51.618Z,99097.97
2024-03-11T00:10:13.984Z,99100.03
2024-03-11T00:10:35.923Z,99099.94
2024-03-11T00:11:01.185Z,99105.25
2024-03-11T00:11:25.333Z,99102.94
2024-03-11T00:11:56.234Z,99101.75
2024-03-11T00:12:18.808Z,99099.34
2024-03-11T00:12:41.844Z,99096.81
2024-03-11T00:13:04.008Z,99102.78
2024-03-11T00:13:33.245Z,99102.88
2024-03-11T00:13:55.223Z,99100.66
2024-03-11T00:14:22.177Z,99100.34
2024-03-11T00:14:48.141Z,99076.13
2024-03-11T00:15:10.653Z,99097.44
2024-03-11T00:15:34.938Z,99095.94
2024-03-11T00:15:56.566Z,99101.09
2024-03-11T00:16:18.237Z,99088.41
2024-03-11T00:16:39.865Z,99098.44
2024-03-11T00:17:03.706Z,99099.28
2024-03-11T00:17:26.473Z,99095.47
2024-03-11T00:17:49.799Z,99102.91
2024-03-11T00:18:11.766Z,99095.84
2024-03-11T00:18:34.008Z,99095.75
2024-03-11T00:18:55.681Z,99099.38
2024-03-11T00:19:17.294Z,99099.28
2024-03-11T00:19:40.043Z,99101.09
2024-03-11T00:20:01.814Z,99102.91
2024-03-11T00:20:23.679Z,99100.00
2024-03-11T00:20:46.393Z,99102.13
2024-03-11T00:21:09.115Z,99102.13
2024-03-11T00:21:30.707Z,99101.81
2024-03-11T00:21:54.070Z,99099.34
2024-03-11T00:22:16.187Z,99106.38
2024-03-11T00:22:38.220Z,99100.00
2024-03-11T00:22:59.899Z,99111.22
2024-03-11T00:23:21.566Z,99101.50
2024-03-11T00:23:44.305Z,99108.97
2024-03-11T00:24:06.149Z,99108.81
2024-03-11T00:24:28.016Z,99103.09
2024-03-11T00:24:49.685Z,99108.88
2024-03-11T00:25:11.479Z,99106.53
2024-03-11T00:25:33.107Z,99112.72
2024-03-11T00:25:55.676Z,99111.53
2024-03-11T00:26:17.309Z,99109.53
2024-03-11T00:26:39.025Z,99110.28
2024-03-11T00:27:00.697Z,99111.88
2024-03-11T00:27:22.990Z,99104.00
2024-03-11T00:27:45.610Z,99111.78
2024-03-11T00:28:09.022Z,99120.41
2024-03-11T00:28:31.077Z,99109.66
2024-03-11T00:28:52.733Z,99107.75
2024-03-11T00:29:15.274Z,99108.91
2024-03-11T00:29:38.174Z,99106.13
2024-03-11T00:30:00.923Z,99104.41
2024-03-11T00:30:23.713Z,99104.41
2024-03-11T00:30:45.545Z,99103.59
2024-03-11T00:31:07.963Z,99107.84
2024-03-11T00:31:30.986Z,99108.91
2024-03-11T00:31:53.577Z,99096.72
2024-03-11T00:32:15.364Z,99111.28
2024-03-11T00:32:38.224Z,99114.75
2024-03-11T00:33:03.651Z,99107.84
2024-03-11T00:33:25.849Z,99105.81
2024-03-11T00:33:50.229Z,99112.84
2024-03-11T00:34:11.855Z,99112.75
2024-03-11T00:34:33.639Z,99107.28
2024-03-11T00:34:55.276Z,99106.34
2024-03-11T00:35:17.675Z,99103.56
2024-03-11T00:35:39.772Z,99090.97
2024-03-11T00:36:02.867Z,99111.47
2024-03-11T00:36:25.098Z,99107.09
2024-03-11T00:36:49.249Z,99104.63
2024-03-11T00:37:13.585Z,99114.16
2024-03-11T00:37:35.943Z,99107.09
2024-03-11T00:37:57.579Z,99111.47
2024-03-11T00:38:20.282Z,99104.19
2024-03-11T00:38:41.986Z,99107.81
2024-03-11T00:39:04.423Z,99113.28
2024-03-11T00:39:26.024Z,99098.75
2024-03-11T00:39:47.802Z,99109.88
2024-03-11T00:40:10.270Z,99114.47
2024-03-11T00:40:32.854Z,99112.84
2024-03-11T00:40:56.795Z,99109.66
2024-03-11T00:41:18.573Z,99108.78
2024-03-11T00:41:40.292Z,99114.25
2024-03-11T00:42:03.255Z,99109.66
2024-03-11T00:42:24.880Z,99114.88
2024-03-11T00:42:47.461Z,99119.38
2024-03-11T00:43:09.604Z,99106.34
2024-03-11T00:43:32.096Z,99115.75
2024-03-11T00:43:53.684Z,99116.47
2024-03-11T00:44:16.588Z,99120.09
2024-03-11T00:44:38.223Z,99113.81
2024-03-11T00:45:00.782Z,99108.59
2024-03-11T00:45:24.251Z,99122.88
2024-03-11T00:45:45.909Z,99113.81
2024-03-11T00:46:08.160Z,99117.22
2024-03-11T00:46:30.446Z,99119.13
2024-03-11T00:46:52.118Z,99116.78
2024-03-11T00:47:14.749Z,99115.31
2024-03-11T00:47:36.567Z,99118.81
2024-03-11T00:47:58.404Z,99114.88
2024-03-11T00:48:21.863Z,99119.53
2024-03-11T00:48:44.943Z,99111.63
2024-03-11T00:49:09.618Z,99118.75
2024-03-11T00:49:31.571Z,99129.19
2024-03-11T00:49:53.648Z,99124.78
2024-03-11T00:50:15.858Z,99127.53
2024-03-11T00:50:37.625Z,99129.34
2024-03-11T00:51:00.737Z,99122.88
2024-03-11T00:51:22.600Z,99122.13
2024-03-11T00:51:44.393Z,99122.13
2024-03-11T00:52:06.738Z,99129.28
2024-03-11T00:52:28.346Z,99123.84
2024-03-11T00:52:50.422Z,99124.56
2024-03-11T00:53:13.097Z,99127.16
2024-03-11T00:53:35.703Z,99128.94
2024-03-11T00:53:58.267Z,99122.66
2024-03-11T00:54:19.887Z,99127.06
2024-03-11T00:54:41.866Z,99118.59
2024-03-11T00:55:07.697Z,99129.59
2024-03-11T00:55:29.596Z,99126.81
2024-03-11T00:55:51.348Z,99128.53
2024-03-11T00:56:13.036Z,99131.06
2024-03-11T00:56:34.750Z,99130.25
2024-03-11T00:56:56.757Z,99127.88
2024-03-11T00:57:19.499Z,99133.03
2024-03-11T00:57:42.659Z,99130.44
2024-03-11T00:58:04.805Z,99134.81
2024-03-11T00:58:26.692Z,99132.38
2024-03-11T00:58:49.991Z,99133.09
2024-03-11T00:59:11.684Z,99139.22
2024-03-11T00:59:33.418Z,99137.25
2024-03-11T00:59:55.557Z,99133.66
2024-03-11T01:00:17.706Z,99131.06
2024-03-11T01:00:39.458Z,99130.25
2024-03-11T01:01:02.390Z,99137.25
2024-03-11T01:01:25.380Z,99136.41
2024-03-11T01:01:47.681Z,99130.25
2024-03-11T01:02:09.391Z,99131.94
2024-03-11T01:02:31.069Z,99131.94
2024-03-11T01:02:53.937Z,99136.09
2024-03-11T01:03:15.624Z,99134.41
2024-03-11T01:03:38.628Z,99134.50
2024-03-11T01:04:00.278Z,99136.94
2024-03-11T01:04:22.560Z,99136.94
2024-03-11T01:04:46.199Z,99126.28
2024-03-11T01:05:09.613Z,99132.47
2024-03-11T01:05:33.178Z,99131.28
2024-03-11T01:05:54.973Z,99134.72
2024-03-11T01:06:16.973Z,99139.28
2024-03-11T01:06:38.680Z,99136.63
2024-03-11T01:07:12.384Z,99137.63
2024-03-11T01:07:45.890Z,99145.63
2024-03-11T01:08:08.623Z,99139.28
2024-03-11T01:08:31.004Z,99135.91
2024-03-11T01:08:52.810Z,99136.84
2024-03-11T01:09:21.240Z,99133.22
2024-03-11T01:09:42.891Z,99129.81
2024-03-11T01:10:05.408Z,99137.81
2024-03-11T01:10:27.088Z,99134.28
2024-03-11T01:10:48.781Z,99131.63
2024-03-11T01:11:12.171Z,99125.75
2024-03-11T01:11:33.955Z,99141.44
2024-03-11T01:11:56.003Z,99134.41
2024-03-11T01:12:17.745Z,99125.00
2024-03-11T01:12:39.401Z,99138.75
2024-03-11T01:13:02.012Z,99136.00
2024-03-11T01:13:23.969Z,99138.56
2024-03-11T01:13:47.015Z,99131.53
2024-03-11T01:14:17.863Z,99136.00
2024-03-11T01:14:39.768Z,99134.19
2024-03-11T01:15:04.091Z,99135.13
2024-03-11T01:15:26.852Z,99145.81
2024-03-11T01:15:49.190Z,99135.13
2024-03-11T01:16:11.607Z,99134.19
2024-03-11T01:16:34.572Z,99135.38
2024-03-11T01:16:56.269Z,99139.53
2024-03-11T01:17:19.004Z,99139.28
2024-03-11T01:17:41.504Z,99142.28
2024-03-11T01:18:05.207Z,99132.69
2024-03-11T01:19:23.630Z,99135.38
2024-03-11T01:19:45.659Z,99139.94
2024-03-11T01:20:10.769Z,99137.25
2024-03-11T01:20:32.673Z,99141.13
2024-03-11T01:20:55.903Z,99143.59
2024-03-11T01:21:18.695Z,99140.91
2024-03-11T01:21:42.678Z,99133.75
2024-03-11T01:22:04.361Z,99134.91
2024-03-11T01:22:26.044Z,99137.41
2024-03-11T01:22:47.680Z,99144.53
2024-03-11T01:23:09.701Z,99138.66
2024-03-11T01:23:32.787Z,99141.94
2024-03-11T01:23:54.849Z,99132.78
2024-03-11T01:24:17.878Z,99137.06
2024-03-11T01:24:40.403Z,99139.63
2024-03-11T01:25:02.023Z,99137.91
2024-03-11T01:25:24.623Z,99136.84
2024-03-11T01:25:46.299Z,99140.38
2024-03-11T01:26:08.494Z,99134.28
2024-03-11T01:26:30.340Z,99135.88
2024-03-11T01:26:52.965Z,99138.34
2024-03-11T01:27:15.642Z,99135.88
2024-03-11T01:27:38.564Z,99136.00
2024-03-11T01:28:00.270Z,99122.88
2024-03-11T01:28:21.927Z,99133.34
2024-03-11T01:28:43.979Z,99132.38
2024-03-11T01:29:05.660Z,99129.06
2024-03-11T01:29:27.434Z,99117.19
2024-03-11T01:29:50.062Z,99134.06
2024-03-11T01:30:12.154Z,99136.19
2024-03-11T01:30:36.504Z,99138.66
2024-03-11T01:30:58.145Z,99137.72
2024-03-11T01:31:24.267Z,99126.19
2024-03-11T01:31:46.178Z,99125.13
2024-03-11T01:32:09.182Z,99133.03
2024-03-11T01:32:31.621Z,99131.22
2024-03-11T01:32:53.997Z,99121.19
2024-03-11T01:33:15.912Z,99134.28
2024-03-11T01:33:38.627Z,99132.38
2024-03-11T01:34:01.039Z,99130.53
2024-03-11T01:34:25.407Z,99128.00
2024-03-11T01:34:47.172Z,99128.09
2024-03-11T01:35:19.412Z,99064.06
2024-03-11T01:35:42.536Z,99120.19
2024-03-11T01:36:04.620Z,99136.72
2024-03-11T01:36:26.747Z,99118.38
2024-03-11T01:36:48.686Z,99139.31
2024-03-11T01:37:10.530Z,99140.16
2024-03-11T01:37:32.260Z,99138.44
2024-03-11T01:37:55.016Z,99133.88
2024-03-11T01:38:18.056Z,99138.25
2024-03-11T01:38:40.775Z,99138.34
2024-03-11T01:39:02.458Z,99133.03
2024-03-11T01:39:26.671Z,99128.53
2024-03-11T01:39:48.514Z,99137.19
2024-03-11T01:40:11.330Z,99121.50
2024-03-11T01:40:34.069Z,99127.47
2024-03-11T01:40:56.585Z,99135.59
2024-03-11T01:41:20.161Z,99134.81
2024-03-11T01:41:41.981Z,99128.31
2024-03-11T01:42:05.136Z,99137.41
2024-03-11T01:42:27.996Z,99127.47
2024-03-11T01:42:51.382Z,99133.75
2024-03-11T01:43:15.933Z,99127.06
2024-03-11T01:43:37.554Z,99124.38
2024-03-11T01:43:59.199Z,99128.31
2024-03-11T01:44:22.857Z,99128.41
2024-03-11T01:44:45.216Z,99133.75
2024-03-11T01:45:08.308Z,99132.78
2024-03-11T01:45:33.449Z,99128.31
2024-03-11T01:45:55.237Z,99131.31
2024-03-11T01:46:18.570Z,99129.59
2024-03-11T01:46:40.231Z,99128.53
2024-03-11T01:47:02.580Z,99132.06
2024-03-11T01:47:26.913Z,99133.88
2024-03-11T01:47:55.456Z,99131.22
2024-03-11T01:48:17.929Z,99132.91
2024-03-11T01:48:41.700Z,99132.91
2024-03-11T01:49:05.498Z,99125.75
2024-03-11T01:49:28.624Z,99131.06
2024-03-11T01:49:54.801Z,99133.66
2024-03-11T01:50:18.288Z,99131.94
2024-03-11T01:50:40.427Z,99131.94
2024-03-11T01:51:05.155Z,99129.28
2024-03-11T01:51:27.755Z,99129.50
2024-03-11T01:51:51.335Z,99124.16
2024-03-11T01:52:15.807Z,99134.59
2024-03-11T01:52:44.198Z,99127.78
2024-03-11T01:53:06.590Z,99126.19
2024-03-11T01:53:29.866Z,99127.78
2024-03-11T01:53:52.149Z,99125.13
2024-03-11T01:54:15.500Z,99128.53
2024-03-11T01:54:39.305Z,99124.16
2024-03-11T01:55:01.062Z,99125.13
2024-03-11T01:55:26.070Z,99124.16
2024-03-11T01:55:49.343Z,99123.22
2024-03-11T01:56:12.230Z,99124.16
2024-03-11T01:56:34.027Z,99125.00
2024-03-11T01:56:56.550Z,99120.53
2024-03-11T01:57:18.487Z,99117.97
2024-03-11T01:57:40.967Z,99121.59
2024-03-11T01:58:04.477Z,99124.06
2024-03-11T01:58:30.142Z,99116.25
2024-03-11T01:58:53.269Z,99122.44
2024-03-11T01:59:15.936Z,99126.81
2024-03-11T01:59:39.063Z,99124.38
2024-03-11T02:00:00.780Z,99125.13
2024-03-11T02:00:23.494Z,99119.34
2024-03-11T02:00:46.741Z,99122.66
2024-03-11T02:01:09.412Z,99119.16
2024-03-11T02:01:31.493Z,99126.06
2024-03-11T02:01:54.060Z,99132.25
2024-03-11T02:02:15.859Z,99118.94
2024-03-11T02:02:37.704Z,99125.22
2024-03-11T02:02:59.397Z,99119.16
2024-03-11T02:03:23.869Z,99120.19
2024-03-11T02:03:45.841Z,99123.63
2024-03-11T02:04:07.507Z,99120.00
2024-03-11T02:04:31.132Z,99113.81
2024-03-11T02:04:52.958Z,99115.84
2024-03-11T02:05:15.370Z,99118.06
2024-03-11T02:05:41.676Z,99124.16
2024-03-11T02:06:03.948Z,99127.59
2024-03-11T02:06:26.012Z,99123.22
2024-03-11T02:06:47.665Z,99127.59
2024-03-11T02:07:09.850Z,99124.25
2024-03-11T02:07:31.877Z,99122.44
2024-03-11T02:07:58.804Z,99120.88
2024-03-11T02:08:23.212Z,99115.72
2024-03-11T02:08:45.029Z,99127.78
2024-03-11T02:09:09.055Z,99126.81
2024-03-11T02:09:31.766Z,99123.53
2024-03-11T02:09:53.403Z,99117.34
2024-03-11T02:10:15.336Z,99122.34
2024-03-11T02:10:37.572Z,99124.91
2024-03-11T02:10:59.361Z,99123.41
2024-03-11T02:11:22.216Z,99123.09
2024-03-11T02:11:44.690Z,99121.59
2024-03-11T02:12:07.513Z,99133.75
2024-03-11T02:12:29.151Z,99129.28
2024-03-11T02:12:50.799Z,99129.16
2024-03-11T02:13:12.451Z,99126.59
2024-03-11T02:13:35.175Z,99130.13
2024-03-11T02:13:56.849Z,99124.91
2024-03-11T02:14:18.469Z,99125.66
2024-03-11T02:14:41.416Z,99124.25
2024-03-11T02:15:03.172Z,99127.88
2024-03-11T02:15:26.510Z,99127.25
2024-03-11T02:15:48.340Z,99133.53
2024-03-11T02:16:10.083Z,99126.38
2024-03-11T02:16:32.998Z,99130.00
2024-03-11T02:16:54.801Z,99124.00
2024-03-11T02:17:18.251Z,99128.19
2024-03-11T02:17:40.945Z,99133.53
2024-03-11T02:18:02.835Z,99130.00
2024-03-11T02:18:24.838Z,99130.88
2024-03-11T02:18:46.838Z,99130.88
2024-03-11T02:19:12.841Z,99135.16
2024-03-11T02:19:36.058Z,99133.66
2024-03-11T02:19:57.935Z,99127.47
2024-03-11T02:20:20.573Z,99123.00
2024-03-11T02:20:43.516Z,99131.84
2024-03-11T02:21:05.396Z,99130.13
2024-03-11T02:21:27.256Z,99127.47
2024-03-11T02:21:49.063Z,99131.94
2024-03-11T02:22:10.691Z,99120.72
2024-03-11T02:22:33.512Z,99132.09
2024-03-11T02:22:58.426Z,99136.41
2024-03-11T02:23:21.537Z,99119.63
2024-03-11T02:23:43.366Z,99128.41
2024-03-11T02:24:07.319Z,99131.00
2024-03-11T02:24:28.951Z,99130.19
2024-03-11T02:24:50.536Z,99133.75
2024-03-11T02:25:13.986Z,99134.50
2024-03-11T02:25:36.808Z,99139.00
2024-03-11T02:25:58.444Z,99127.84
2024-03-11T02:26:21.138Z,99133.94
2024-03-11T02:26:46.585Z,99138.41
2024-03-11T02:27:08.909Z,99130.50
2024-03-11T02:27:33.044Z,99132.94
2024-03-11T02:27:56.768Z,99121.75
2024-03-11T02:28:19.626Z,99131.94
2024-03-11T02:28:41.270Z,99126.91
2024-03-11T02:29:03.666Z,99131.84
2024-03-11T02:29:25.395Z,99132.78
2024-03-11T02:29:48.256Z,99132.09
2024-03-11T02:30:11.820Z,99121.75
2024-03-11T02:30:33.773Z,99133.19
2024-03-11T02:30:55.519Z,99133.75
2024-03-11T02:31:18.218Z,99132.66
2024-03-11T02:31:39.842Z,99129.34
2024-03-11T02:32:02.601Z,99131.28
2024-03-11T02:32:24.744Z,99136.59
2024-03-11T02:32:46.902Z,99139.09
2024-03-11T02:33:08.707Z,99132.94
2024-03-11T02:33:31.257Z,99134.66
2024-03-11T02:33:54.272Z,99136.19
2024-03-11T02:34:16.905Z,99138.84
2024-03-11T02:34:38.683Z,99134.50
2024-03-11T02:35:00.837Z,99134.59
2024-03-11T02:35:22.613Z,99127.00
2024-03-11T02:35:45.437Z,99131.47
2024-03-11T02:36:08.046Z,99130.41
2024-03-11T02:36:29.741Z,99135.06
2024-03-11T02:36:52.048Z,99134.13
2024-03-11T02:37:13.780Z,99138.41
2024-03-11T02:37:35.606Z,99134.91
2024-03-11T02:37:58.429Z,99125.41
2024-03-11T02:38:22.519Z,99133.09
2024-03-11T02:38:44.309Z,99139.28
2024-03-11T02:39:06.330Z,99132.41
2024-03-11T02:39:28.986Z,99133.19
2024-03-11T02:39:52.428Z,99136.59
2024-03-11T02:40:14.817Z,99125.19
2024-03-11T02:40:39.491Z,99127.53
2024-03-11T02:41:01.422Z,99128.16
2024-03-11T02:41:23.254Z,99129.97
2024-03-11T02:41:46.793Z,99137.88
2024-03-11T02:42:08.608Z,99122.91
2024-03-11T02:42:31.807Z,99132.31
2024-03-11T02:42:54.751Z,99128.16
2024-03-11T02:43:17.661Z,99134.03
2024-03-11T02:43:39.422Z,99129.66
2024-03-11T02:44:01.609Z,99141.28
2024-03-11T02:44:24.693Z,99136.91
2024-03-11T02:44:46.582Z,99131.88
2024-03-11T02:45:13.013Z,99133.59
2024-03-11T02:45:35.609Z,99127.53
2024-03-11T02:45:58.272Z,99141.59
2024-03-11T02:46:20.085Z,99129.97
2024-03-11T02:46:42.835Z,99129.66
2024-03-11T02:47:04.819Z,99132.72
2024-03-11T02:47:27.232Z,99139.78
2024-03-11T02:47:50.583Z,99135.53
2024-03-11T02:48:13.544Z,99137.34
2024-03-11T02:48:36.280Z,99135.53
2024-03-11T02:48:58.526Z,99140.63
2024-03-11T02:49:20.182Z,99124.63
2024-03-11T02:49:41.834Z,99137.00
2024-03-11T02:50:07.051Z,99137.09
2024-03-11T02:50:29.449Z,99126.34
2024-03-11T02:50:52.127Z,99138.72
2024-03-11T02:51:13.778Z,99127.72
2024-03-11T02:51:36.829Z,99128.06
2024-03-11T02:52:00.133Z,99112.13
2024-03-11T02:52:22.563Z,99132.53
2024-03-11T02:52:44.303Z,99135.84
2024-03-11T02:53:06.969Z,99129.75
2024-03-11T02:53:31.606Z,99135.94
2024-03-11T02:53:53.468Z,99126.53
2024-03-11T02:54:15.499Z,99129.97
2024-03-11T02:54:38.522Z,99131.47
2024-03-11T02:55:02.353Z,99132.31
2024-03-11T02:55:24.275Z,99123.78
2024-03-11T02:55:46.116Z,99138.50
2024-03-11T02:56:08.937Z,99133.28
2024-03-11T02:56:32.876Z,99140.41
2024-03-11T02:56:54.592Z,99130.06
2024-03-11T02:57:16.276Z,99140.63
2024-03-11T02:57:38.153Z,99130.72
2024-03-11T02:57:59.818Z,99140.53
2024-03-11T02:58:22.499Z,99134.34
2024-03-11T02:58:44.442Z,99135.31
2024-03-11T02:59:06.586Z,99133.19
2024-03-11T02:59:28.450Z,99138.72
2024-03-11T02:59:51.210Z,99134.97
2024-03-11T03:00:13.645Z,99111.31
2024-03-11T03:00:37.110Z,99142.97
2024-03-11T03:00:58.791Z,99137.88
2024-03-11T03:01:20.527Z,99142.13
2024-03-11T03:01:42.688Z,99134.03
2024-03-11T03:02:04.379Z,99135.84
2024-03-11T03:02:28.207Z,99134.91
2024-03-11T03:02:51.613Z,99132.22
2024-03-11T03:03:15.613Z,99130.41
2024-03-11T03:03:37.308Z,99136.59
2024-03-11T03:03:59.564Z,99143.94
2024-03-11T03:04:21.370Z,99122.75
2024-03-11T03:04:44.076Z,99138.72
2024-03-11T03:05:07.246Z,99138.50
2024-03-11T03:05:28.989Z,99141.41
2024-03-11T03:05:50.820Z,99128.94
2024-03-11T03:06:12.685Z,99128.47
2024-03-11T03:06:35.392Z,99146.59
2024-03-11T03:06:59.049Z,99140.53
2024-03-11T03:07:20.712Z,99137.88
2024-03-11T03:07:42.383Z,99137.09
2024-03-11T03:08:05.874Z,99148.63
2024-03-11T03:08:27.574Z,99135.41
2024-03-11T03:08:50.877Z,99142.34
2024-03-11T03:09:12.893Z,99137.00
2024-03-11T03:09:34.824Z,99125.50
2024-03-11T03:09:56.580Z,99140.41
2024-03-11T03:10:19.252Z,99144.06
2024-03-11T03:10:41.051Z,99134.25
2024-03-11T03:11:04.360Z,99134.13
2024-03-11T03:11:26.708Z,99143.84
2024-03-11T03:11:48.620Z,99140.31
2024-03-11T03:12:12.247Z,99141.28
2024-03-11T03:12:33.996Z,99145.56
2024-03-11T03:12:55.705Z,99136.59
2024-03-11T03:13:17.421Z,99147.13
2024-03-11T03:13:39.332Z,99140.09
2024-03-11T03:14:03.043Z,99139.13
2024-03-11T03:14:24.829Z,99136.59
2024-03-11T03:14:46.620Z,99134.25
2024-03-11T03:15:09.664Z,99146.41
2024-03-11T03:15:31.558Z,99145.66
2024-03-11T03:15:54.260Z,99140.41
2024-03-11T03:16:16.999Z,99137.88
2024-03-11T03:16:38.737Z,99140.09
2024-03-11T03:17:00.470Z,99133.59
2024-03-11T03:17:22.247Z,99143.28
2024-03-11T03:17:44.704Z,99134.84
2024-03-11T03:18:08.061Z,99146.81
2024-03-11T03:18:29.971Z,99138.28
2024-03-11T03:18:51.657Z,99138.28
2024-03-11T03:19:13.401Z,99133.91
2024-03-11T03:19:35.790Z,99132.31
2024-03-11T03:19:57.568Z,99140.00
2024-03-11T03:20:21.300Z,99141.03
2024-03-11T03:20:43.108Z,99141.25
2024-03-11T03:21:07.344Z,99142.97
2024-03-11T03:21:29.043Z,99142.00
2024-03-11T03:21:50.860Z,99138.38
2024-03-11T03:22:12.567Z,99139.22
2024-03-11T03:22:35.274Z,99144.56
2024-03-11T03:22:57.437Z,99148.94
2024-03-11T03:23:19.277Z,99144.66
2024-03-11T03:23:41.183Z,99143.84
2024-03-11T03:24:04.493Z,99135.72
2024-03-11T03:24:26.204Z,99140.09
2024-03-11T03:24:51.061Z,99139.22
2024-03-11T03:25:14.136Z,99141.91
2024-03-11T03:25:35.901Z,99139.13
2024-03-11T03:25:57.645Z,99137.44
2024-03-11T03:26:21.020Z,99140.84
2024-03-11T03:26:42.836Z,99137.19
2024-03-11T03:27:04.805Z,99144.25
2024-03-11T03:27:26.918Z,99144.25
2024-03-11T03:27:48.614Z,99145.09
2024-03-11T03:28:10.467Z,99135.63
2024-03-11T03:28:33.288Z,99137.44
2024-03-11T03:28:54.975Z,99139.31
2024-03-11T03:29:16.861Z,99143.72
2024-03-11T03:29:41.189Z,99142.84
2024-03-11T03:30:04.248Z,99142.13
2024-03-11T03:30:27.680Z,99133.56
2024-03-11T03:30:49.914Z,99144.97
2024-03-11T03:31:12.336Z,99137.09
2024-03-11T03:31:34.044Z,99139.75
2024-03-11T03:31:56.582Z,99137.09
2024-03-11T03:32:20.793Z,99144.13
2024-03-11T03:32:43.599Z,99141.44
2024-03-11T03:33:06.300Z,99136.97
2024-03-11T03:33:28.955Z,99139.63
2024-03-11T03:33:51.160Z,99143.16
2024-03-11T03:34:14.257Z,99139.63
2024-03-11T03:34:35.957Z,99141.56
2024-03-11T03:34:57.620Z,99143.38
2024-03-11T03:35:19.364Z,99144.25
2024-03-11T03:35:41.061Z,99143.28
2024-03-11T03:36:04.471Z,99143.16
2024-03-11T03:36:26.257Z,99145.84
2024-03-11T03:36:48.147Z,99145.09
2024-03-11T03:37:10.328Z,99137.97
2024-03-11T03:37:32.063Z,99141.44
2024-03-11T03:37:56.713Z,99145.84
2024-03-11T03:38:18.459Z,99144.88
2024-03-11T03:38:40.156Z,99144.03
2024-03-11T03:39:01.912Z,99144.97
2024-03-11T03:39:25.620Z,99136.03
2024-03-11T03:39:48.713Z,99138.69
2024-03-11T03:40:17.455Z,99138.78
2024-03-11T03:40:39.737Z,99148.63
2024-03-11T03:41:01.450Z,99147.75
2024-03-11T03:41:23.304Z,99130.38
2024-03-11T03:41:46.262Z,99139.94
2024-03-11T03:42:08.107Z,99142.31
2024-03-11T03:42:29.813Z,99137.97
2024-03-11T03:42:52.004Z,99136.97
2024-03-11T03:43:14.669Z,99138.91
2024-03-11T03:43:36.396Z,99140.50
2024-03-11T03:43:58.297Z,99136.03
2024-03-11T03:44:20.043Z,99130.78
2024-03-11T03:44:41.985Z,99134.44
2024-03-11T03:45:04.342Z,99129.97
2024-03-11T03:45:28.572Z,99127.41
2024-03-11T03:45:50.500Z,99121.22
2024-03-11T03:46:12.262Z,99132.50
2024-03-11T03:46:33.964Z,99133.44
2024-03-11T03:46:56.571Z,99132.50
2024-03-11T03:47:19.341Z,99130.16
2024-03-11T03:47:41.887Z,99123.09
2024-03-11T03:48:04.148Z,99127.50
2024-03-11T03:48:26.588Z,99130.16
2024-03-11T03:48:49.860Z,99126.53
2024-03-11T03:49:11.540Z,99130.16
2024-03-11T03:49:34.218Z,99127.50
2024-03-11T03:49:55.954Z,99131.88
2024-03-11T03:50:19.005Z,99133.78
2024-03-11T03:50:40.875Z,99125.69
2024-03-11T03:51:04.712Z,99138.16
2024-03-11T03:51:27.731Z,99137.41
2024-03-11T03:51:49.512Z,99140.09
2024-03-11T03:52:11.160Z,99131.00
2024-03-11T03:52:32.875Z,99136.25
2024-03-11T03:52:54.576Z,99135.28
2024-03-11T03:53:16.316Z,99138.69
2024-03-11T03:53:39.071Z,99123.78
2024-03-11T03:54:01.750Z,99135.94
2024-03-11T03:54:25.055Z,99144.88
2024-03-11T03:54:46.914Z,99133.16
2024-03-11T03:55:09.767Z,99150.13
2024-03-11T03:55:32.545Z,99140.19
2024-03-11T03:55:54.392Z,99131.88
2024-03-11T03:56:16.549Z,99139.56
2024-03-11T03:56:39.788Z,99142.31
2024-03-11T03:57:01.628Z,99133.44
2024-03-11T03:57:23.481Z,99143.16
2024-03-11T03:57:46.656Z,99140.50
2024-03-11T03:58:08.892Z,99143.94
2024-03-11T03:58:34.014Z,99137.84
2024-03-11T03:58:56.673Z,99141.44
2024-03-11T03:59:18.402Z,99144.44
2024-03-11T03:59:40.752Z,99144.34
2024-03-11T04:00:02.424Z,99142.75
2024-03-11T04:00:29.958Z,99133.91
2024-03-11T04:00:51.585Z,99140.09
2024-03-11T04:01:13.360Z,99134.44
2024-03-11T04:01:35.053Z,99138.28
2024-03-11T04:01:56.768Z,99140.09
2024-03-11T04:02:18.402Z,99143.78
2024-03-11T04:02:41.129Z,99141.13
2024-03-11T04:03:04.261Z,99138.69
2024-03-11T04:03:28.143Z,99135.25
2024-03-11T04:03:49.783Z,99140.56
2024-03-11T04:04:12.432Z,99138.75
2024-03-11T04:04:34.076Z,99133.53
2024-03-11T04:04:55.711Z,99136.09
2024-03-11T04:05:19.606Z,99142.28
2024-03-11T04:05:41.487Z,99147.41
2024-03-11T04:06:06.109Z,99141.22
2024-03-11T04:06:27.731Z,99145.50
2024-03-11T04:06:50.391Z,99145.50
2024-03-11T04:07:12.012Z,99137.41
2024-03-11T04:07:33.729Z,99143.88
2024-03-11T04:07:56.683Z,99138.84
2024-03-11T04:08:18.971Z,99140.34
2024-03-11T04:08:40.876Z,99153.97
2024-03-11T04:09:03.499Z,99146.78
2024-03-11T04:09:26.500Z,99158.78
2024-03-11T04:09:48.132Z,99151.75
2024-03-11T04:10:14.275Z,99155.19
2024-03-11T04:10:36.155Z,99156.13
2024-03-11T04:10:59.307Z,99154.72
2024-03-11T04:11:21.832Z,99159.09
2024-03-11T04:11:43.764Z,99163.00
2024-03-11T04:12:07.516Z,99161.50
2024-03-11T04:12:29.351Z,99161.69
2024-03-11T04:12:53.914Z,99157.13
2024-03-11T04:13:16.535Z,99169.09
2024-03-11T04:13:40.900Z,99163.56
2024-03-11T04:14:03.318Z,99160.91
2024-03-11T04:14:25.212Z,99160.91
2024-03-11T04:14:47.100Z,99164.34
2024-03-11T04:15:13.826Z,99171.25
2024-03-11T04:15:38.056Z,99154.63
2024-03-11T04:15:59.761Z,99164.34
2024-03-11T04:16:21.754Z,99167.09
2024-03-11T04:16:43.598Z,99152.91
2024-03-11T04:17:07.279Z,99161.69
2024-03-11T04:17:29.098Z,99162.72
2024-03-11T04:17:54.655Z,99158.44
2024-03-11T04:18:17.815Z,99156.75
2024-03-11T04:18:39.547Z,99155.56
2024-03-11T04:19:01.526Z,99155.38
2024-03-11T04:19:26.219Z,99157.94
2024-03-11T04:19:49.108Z,99157.00
2024-03-11T04:20:13.147Z,99161.25
2024-03-11T04:20:35.394Z,99157.63
2024-03-11T04:20:57.434Z,99155.75
2024-03-11T04:21:19.161Z,99153.16
2024-03-11T04:21:41.845Z,99154.75
2024-03-11T04:22:04.334Z,99153.69
2024-03-11T04:22:26.022Z,99159.41
2024-03-11T04:22:50.612Z,99149.13
2024-03-11T04:23:13.258Z,99158.84
2024-03-11T04:23:35.190Z,99156.19
2024-03-11T04:24:00.362Z,99152.75
2024-03-11T04:24:22.685Z,99156.19
2024-03-11T04:24:45.753Z,99164.16
2024-03-11T04:25:09.043Z,99155.22
2024-03-11T04:25:32.335Z,99163.78
2024-03-11T04:25:54.123Z,99162.63
2024-03-11T04:26:17.770Z,99163.47
2024-03-11T04:26:39.869Z,99165.38
2024-03-11T04:27:01.697Z,99165.66
2024-03-11T04:27:23.873Z,99166.75